< < Back
Terminal Aerodrome Forecast


Current Version              Previous Versions:   1  2  3  4  5  6  7  8  9  

Terminal Aerodrome Forecast

193
FTUS44 KBMX 172300
TAFANB
TAF
KANB 172325Z 1800/1824 09007KT P6SM BKN050 OVC120
     FM181000 06009KT P6SM VCSH OVC040
     FM181300 06010KT 5SM -RA OVC040=



Latest METAR

020
SAUS70 KWBC 182056
MTRANB
METAR KANB 182053Z AUTO 08008KT 7SM -RA OVC090 12/10 A3015 RMK AO2
SLP212 P0005 60009 T01220100 58020


USA.gov is the U.S. government's official web portal to all federal, state and local government web resources and services.